createdAt,value
2018-12-23T00:00:00.244Z,10.38
2018-12-23T00:02:28.437Z,8.68
2018-12-23T00:04:56.616Z,6.35
2018-12-23T00:07:24.792Z,6.65
2018-12-23T00:09:52.916Z,9.03
2018-12-23T00:12:21.168Z,6.87
2018-12-23T00:14:49.369Z,5.35
2018-12-23T00:17:17.540Z,6.90
2018-12-23T00:19:45.836Z,7.87
2018-12-23T00:22:14.021Z,8.33
2018-12-23T00:24:42.204Z,8.75
2018-12-23T00:27:10.388Z,13.18
2018-12-23T00:29:38.584Z,6.78
2018-12-23T00:32:06.831Z,5.65
2018-12-23T00:34:34.973Z,9.83
2018-12-23T00:37:03.239Z,7.53
2018-12-23T00:39:31.426Z,7.97
2018-12-23T00:41:59.616Z,9.35
2018-12-23T00:44:27.812Z,11.57
2018-12-23T00:46:55.912Z,8.00
2018-12-23T00:49:24.072Z,9.08
2018-12-23T00:51:52.279Z,10.53
2018-12-23T00:54:20.436Z,5.33
2018-12-23T00:56:48.635Z,7.90
2018-12-23T00:59:16.821Z,8.80
2018-12-23T01:01:45.115Z,4.35
2018-12-23T01:04:13.400Z,6.95
2018-12-23T01:06:41.584Z,7.95
2018-12-23T01:09:09.777Z,7.03
2018-12-23T01:11:37.971Z,12.47
2018-12-23T01:14:06.148Z,10.35
2018-12-23T01:16:34.342Z,5.58
2018-12-23T01:19:02.521Z,8.30
2018-12-23T01:21:30.724Z,6.80
2018-12-23T01:23:58.900Z,11.18
2018-12-23T01:26:27.105Z,5.80
2018-12-23T01:28:55.377Z,8.58
2018-12-23T01:31:23.572Z,10.93
2018-12-23T01:33:51.960Z,9.58
2018-12-23T01:36:20.145Z,9.30
2018-12-23T01:38:48.321Z,3.85
2018-12-23T01:41:16.423Z,4.92
2018-12-23T01:43:44.592Z,7.45
2018-12-23T01:46:12.795Z,10.13
2018-12-23T01:48:41.076Z,6.08
2018-12-23T01:51:09.251Z,6.97
2018-12-23T01:53:37.463Z,9.93
2018-12-23T01:56:05.632Z,7.60
2018-12-23T01:58:33.836Z,9.20
2018-12-23T02:01:02.008Z,8.15
2018-12-23T02:03:30.195Z,7.58
2018-12-23T02:05:58.381Z,12.10
2018-12-23T02:08:26.570Z,15.25
2018-12-23T02:10:54.752Z,7.97
2018-12-23T02:13:22.949Z,8.00
2018-12-23T02:15:51.230Z,9.95
2018-12-23T02:18:19.392Z,9.80
2018-12-23T02:20:47.586Z,6.42
2018-12-23T02:23:15.759Z,5.22
2018-12-23T02:25:43.844Z,9.55
2018-12-23T02:28:11.932Z,11.35
2018-12-23T02:30:40.037Z,12.60
2018-12-23T02:33:08.200Z,14.73
2018-12-23T02:35:36.296Z,8.25
2018-12-23T02:38:04.471Z,14.45
2018-12-23T02:40:32.559Z,7.62
2018-12-23T02:43:00.840Z,9.45
2018-12-23T02:45:28.952Z,10.45
2018-12-23T02:47:57.127Z,9.70
2018-12-23T02:50:25.317Z,10.05
2018-12-23T02:52:53.506Z,12.40
2018-12-23T02:55:21.685Z,7.47
2018-12-23T02:57:49.855Z,9.20
2018-12-23T03:00:17.953Z,8.35
2018-12-23T03:02:46.036Z,12.55
2018-12-23T03:05:14.130Z,9.00
2018-12-23T03:07:42.302Z,9.13
2018-12-23T03:10:10.502Z,11.40
2018-12-23T03:12:38.684Z,10.45
2018-12-23T03:15:06.900Z,9.85
2018-12-23T03:17:35.051Z,8.43
2018-12-23T03:20:03.252Z,5.25
2018-12-23T03:22:31.427Z,6.72
2018-12-23T03:24:59.522Z,11.78
2018-12-23T03:27:27.694Z,12.73
2018-12-23T03:29:55.792Z,7.37
2018-12-23T03:32:24.211Z,13.15
2018-12-23T03:34:52.390Z,6.00
2018-12-23T03:37:20.552Z,9.83
2018-12-23T03:39:48.639Z,9.30
2018-12-23T03:42:16.713Z,9.45
2018-12-23T03:44:44.813Z,6.62
2018-12-23T03:47:12.994Z,10.25
2018-12-23T03:49:41.076Z,9.33
2018-12-23T03:52:09.159Z,13.53
2018-12-23T03:54:37.244Z,8.53
2018-12-23T03:57:05.328Z,7.80
2018-12-23T03:59:33.424Z,16.12
2018-12-23T04:02:01.600Z,9.05
2018-12-23T04:04:29.800Z,15.38
2018-12-23T04:06:57.972Z,8.35
2018-12-23T04:09:26.070Z,11.48
2018-12-23T04:11:54.252Z,12.85
2018-12-23T04:14:22.438Z,6.40
2018-12-23T04:16:50.522Z,8.65
2018-12-23T04:19:18.717Z,4.42
2018-12-23T04:21:46.883Z,8.33
2018-12-23T04:24:14.955Z,12.15
2018-12-23T04:26:43.068Z,9.15
2018-12-23T04:29:11.244Z,9.58
2018-12-23T04:31:39.443Z,6.53
2018-12-23T04:34:07.615Z,7.58
2018-12-23T04:36:35.713Z,14.98
2018-12-23T04:39:05.551Z,13.45
2018-12-23T04:41:33.756Z,9.48
2018-12-23T04:44:01.901Z,16.32
2018-12-23T04:46:30.104Z,15.68
2018-12-23T04:48:58.280Z,8.73
2018-12-23T04:51:26.376Z,8.20
2018-12-23T04:53:54.560Z,10.65
2018-12-23T04:56:22.633Z,10.03
2018-12-23T04:58:50.725Z,8.58
2018-12-23T05:01:18.908Z,8.28
2018-12-23T05:03:46.993Z,10.80
2018-12-23T05:06:17.726Z,9.33
2018-12-23T05:08:45.309Z,10.82
2018-12-23T05:11:13.405Z,7.55
2018-12-23T05:13:41.590Z,12.43
2018-12-23T05:16:09.780Z,15.28
2018-12-23T05:18:37.968Z,12.28
2018-12-23T05:21:06.055Z,12.58
2018-12-23T05:23:34.223Z,16.00
2018-12-23T05:26:02.328Z,13.70
2018-12-23T05:28:30.496Z,10.75
2018-12-23T05:30:58.593Z,10.80
2018-12-23T05:33:26.772Z,9.28
2018-12-23T05:35:54.864Z,13.93
2018-12-23T05:38:23.012Z,12.75
2018-12-23T05:40:51.717Z,8.48
2018-12-23T05:43:19.925Z,6.72
2018-12-23T05:45:48.021Z,12.85
2018-12-23T05:48:16.200Z,12.78
2018-12-23T05:50:44.290Z,10.70
2018-12-23T05:53:12.467Z,5.83
2018-12-23T05:55:39.692Z,8.10
2018-12-23T05:58:07.764Z,15.00
2018-12-23T06:00:35.908Z,12.10
2018-12-23T06:03:03.982Z,8.40
2018-12-23T06:05:32.179Z,11.45
2018-12-23T06:08:00.255Z,9.75
2018-12-23T06:10:28.343Z,7.70
2018-12-23T06:12:56.407Z,11.38
2018-12-23T06:15:24.525Z,5.85
2018-12-23T06:17:52.704Z,10.08
2018-12-23T06:20:21.108Z,6.37
2018-12-23T06:22:49.267Z,8.03
2018-12-23T06:25:17.359Z,8.00
2018-12-23T06:27:45.451Z,8.70
2018-12-23T06:30:13.816Z,9.20
2018-12-23T06:32:42.028Z,9.58
2018-12-23T06:35:10.103Z,10.08
2018-12-23T06:37:38.200Z,4.78
2018-12-23T06:40:06.408Z,8.93
2018-12-23T06:42:34.572Z,7.87
2018-12-23T06:45:02.853Z,9.40
2018-12-23T06:47:30.956Z,4.50
2018-12-23T06:49:59.032Z,4.95
2018-12-23T06:52:27.117Z,16.35
2018-12-23T06:54:55.193Z,8.30
2018-12-23T06:57:23.342Z,7.83
2018-12-23T06:59:51.463Z,10.13
2018-12-23T07:02:19.555Z,8.20
2018-12-23T07:04:47.632Z,8.30
2018-12-23T07:07:18.834Z,2.67
2018-12-23T07:09:45.848Z,6.17
2018-12-23T07:12:13.944Z,6.03
2018-12-23T07:14:42.028Z,3.65
2018-12-23T07:17:10.108Z,8.05
2018-12-23T07:19:38.292Z,10.30
2018-12-23T07:22:06.375Z,7.62
2018-12-23T07:24:34.481Z,7.17
2018-12-23T07:27:02.657Z,7.50
2018-12-23T07:29:30.832Z,10.72
2018-12-23T07:31:58.923Z,9.15
2018-12-23T07:34:27.007Z,6.55
2018-12-23T07:36:55.093Z,5.37
2018-12-23T07:39:23.172Z,4.15
2018-12-23T07:41:51.464Z,5.72
2018-12-23T07:44:19.555Z,5.90
2018-12-23T07:46:47.635Z,5.67
2018-12-23T07:49:15.724Z,9.13
2018-12-23T07:51:43.900Z,8.88
2018-12-23T07:54:11.991Z,8.08
2018-12-23T07:56:40.171Z,10.13
2018-12-23T07:59:08.268Z,8.40
2018-12-23T08:01:36.435Z,8.15
2018-12-23T08:04:04.543Z,16.95
2018-12-23T08:06:32.842Z,10.90
2018-12-23T08:09:01.019Z,11.70
2018-12-23T08:11:29.219Z,14.13
2018-12-23T08:13:57.395Z,8.60
2018-12-23T08:16:25.576Z,18.10
2018-12-23T08:18:53.768Z,9.83
2018-12-23T08:21:21.940Z,8.73
2018-12-23T08:23:50.039Z,18.90
2018-12-23T08:26:18.247Z,12.37
2018-12-23T08:28:46.427Z,11.20
2018-12-23T08:31:14.588Z,11.35
2018-12-23T08:33:42.675Z,13.83
2018-12-23T08:36:10.757Z,12.55
2018-12-23T08:38:38.903Z,12.58
2018-12-23T08:41:07.038Z,10.43
2018-12-23T08:43:35.220Z,13.18
2018-12-23T08:46:03.320Z,10.68
2018-12-23T08:48:31.496Z,13.05
2018-12-23T08:50:59.596Z,15.20
2018-12-23T08:53:27.763Z,16.10
2018-12-23T08:55:55.957Z,11.85
2018-12-23T08:58:24.030Z,19.95
2018-12-23T09:00:52.142Z,11.68
2018-12-23T09:03:20.314Z,18.02
2018-12-23T09:05:48.493Z,12.30
2018-12-23T09:08:16.580Z,15.90
2018-12-23T09:10:44.768Z,12.23
2018-12-23T09:13:12.896Z,16.55
2018-12-23T09:15:41.041Z,12.15
2018-12-23T09:18:09.213Z,17.55
2018-12-23T09:20:37.426Z,19.45
2018-12-23T09:23:05.605Z,23.05
2018-12-23T09:25:33.796Z,21.93
2018-12-23T09:28:01.964Z,17.67
2018-12-23T09:30:30.128Z,14.15
2018-12-23T09:32:58.262Z,21.07
2018-12-23T09:35:26.472Z,17.60
2018-12-23T09:38:01.364Z,19.90
2018-12-23T09:40:24.848Z,18.10
2018-12-23T09:42:52.946Z,24.05
2018-12-23T09:45:21.130Z,18.98
2018-12-23T09:47:49.328Z,24.07
2018-12-23T09:50:17.524Z,18.65
2018-12-23T09:52:45.676Z,21.07
2018-12-23T09:55:13.876Z,14.63
2018-12-23T09:57:41.947Z,22.80
2018-12-23T10:00:10.035Z,22.27
2018-12-23T10:02:38.124Z,15.78
2018-12-23T10:05:06.927Z,15.80
2018-12-23T10:07:35.129Z,24.87
2018-12-23T10:10:03.324Z,22.75
2018-12-23T10:12:31.518Z,27.62
2018-12-23T10:14:59.671Z,18.20
2018-12-23T10:17:27.860Z,17.73
2018-12-23T10:19:56.048Z,17.52
2018-12-23T10:22:24.237Z,19.23
2018-12-23T10:24:52.420Z,23.50
2018-12-23T10:27:20.509Z,21.17
2018-12-23T10:29:48.692Z,22.15
2018-12-23T10:32:16.807Z,16.70
2018-12-23T10:34:44.964Z,25.30
2018-12-23T10:37:13.047Z,20.82
2018-12-23T10:39:41.131Z,21.77
2018-12-23T10:42:09.232Z,18.87
2018-12-23T10:44:37.776Z,19.70
2018-12-23T10:47:05.895Z,17.02
2018-12-23T10:49:34.184Z,18.82
2018-12-23T10:52:02.276Z,21.62
2018-12-23T10:54:30.447Z,21.33
2018-12-23T10:56:58.552Z,21.48
2018-12-23T10:59:26.719Z,26.30
2018-12-23T11:01:54.829Z,26.77
2018-12-23T11:04:23.010Z,21.25
2018-12-23T11:06:51.182Z,22.98
2018-12-23T11:09:19.373Z,27.50
2018-12-23T11:11:47.453Z,20.17
2018-12-23T11:14:15.552Z,27.45
2018-12-23T11:16:43.724Z,20.70
2018-12-23T11:19:11.815Z,24.30
2018-12-23T11:21:39.995Z,31.68
2018-12-23T11:24:08.096Z,17.57
2018-12-23T11:26:36.278Z,18.75
2018-12-23T11:29:04.465Z,23.62
2018-12-23T11:31:32.644Z,19.90
2018-12-23T11:34:00.741Z,26.10
2018-12-23T11:36:28.907Z,18.02
2018-12-23T11:38:57.006Z,27.00
2018-12-23T11:41:25.187Z,26.87
2018-12-23T11:43:54.285Z,25.02
2018-12-23T11:46:22.484Z,22.98
2018-12-23T11:48:50.580Z,23.45
2018-12-23T11:51:18.748Z,33.38
2018-12-23T11:55:06.125Z,25.90
2018-12-23T12:00:31.462Z,28.90
2018-12-23T12:03:12.493Z,24.37
2018-12-23T12:05:53.135Z,21.07
2018-12-23T12:08:33.994Z,25.55
2018-12-23T12:14:03.962Z,20.60
2018-12-23T12:19:34.209Z,23.27
2018-12-23T12:22:15.534Z,20.02
2018-12-23T12:24:56.662Z,26.95
2018-12-23T12:27:37.251Z,28.90
2018-12-23T12:30:18.445Z,27.77
2018-12-23T12:35:41.738Z,26.95
2018-12-23T12:38:22.698Z,25.62
2018-12-23T12:41:03.822Z,30.88
2018-12-23T12:43:44.715Z,28.40
2018-12-23T12:46:25.966Z,36.58
2018-12-23T12:49:07.169Z,25.10
2018-12-23T12:51:47.835Z,26.62
2018-12-23T12:54:28.827Z,19.10
2018-12-23T12:57:09.426Z,21.45
2018-12-23T12:59:50.473Z,22.25
2018-12-23T13:02:31.642Z,24.55
2018-12-23T13:05:12.729Z,24.30
2018-12-23T13:10:35.714Z,18.80
2018-12-23T13:13:16.766Z,19.25
2018-12-23T13:15:58.001Z,14.50
2018-12-23T13:18:39.465Z,16.15
2018-12-23T13:21:20.766Z,15.70
2018-12-23T13:24:02.046Z,26.15
2018-12-23T13:26:43.466Z,20.30
2018-12-23T13:29:24.536Z,12.43
2018-12-23T13:32:08.499Z,14.75
2018-12-23T13:34:49.428Z,17.10
2018-12-23T13:37:30.854Z,14.10
2018-12-23T13:40:11.668Z,20.88
2018-12-23T13:42:53.100Z,15.98
2018-12-23T13:45:34.426Z,11.55
2018-12-23T13:48:15.855Z,17.35
2018-12-23T13:50:57.222Z,13.40
2018-12-23T13:53:38.350Z,13.62
2018-12-23T13:59:01.819Z,12.10
2018-12-23T14:01:45.677Z,8.83
2018-12-23T14:04:26.597Z,13.98
2018-12-23T14:07:07.795Z,5.28
2018-12-23T14:09:48.661Z,7.95
2018-12-23T14:12:30.045Z,8.95
2018-12-23T14:15:10.798Z,8.43
2018-12-23T14:17:51.637Z,4.53
2018-12-23T14:23:22.755Z,13.53
2018-12-23T14:34:30.817Z,5.58
2018-12-23T14:37:12.293Z,7.10
2018-12-23T14:39:53.326Z,5.92
2018-12-23T14:42:34.190Z,8.45
2018-12-23T14:45:15.991Z,7.62
2018-12-23T14:47:57.439Z,7.17
2018-12-23T14:50:38.590Z,6.30
2018-12-23T14:56:05.666Z,7.20
2018-12-23T14:58:46.546Z,7.78
2018-12-23T15:01:27.686Z,3.47
2018-12-23T15:04:08.921Z,5.75
2018-12-23T15:06:50.510Z,4.87
2018-12-23T15:09:34.472Z,5.25
2018-12-23T15:12:15.027Z,6.83
2018-12-23T15:14:55.763Z,5.35
2018-12-23T15:17:36.713Z,9.33
2018-12-23T15:20:17.813Z,5.75
2018-12-23T15:22:59.013Z,5.92
2018-12-23T15:25:40.214Z,2.83
2018-12-23T15:28:21.173Z,6.87
2018-12-23T15:31:02.021Z,1.98
2018-12-23T15:33:43.014Z,5.65
2018-12-23T15:36:24.612Z,8.10
2018-12-23T15:39:05.873Z,6.90
2018-12-23T15:41:46.976Z,5.55
2018-12-23T15:44:27.897Z,3.95
2018-12-23T15:47:09.269Z,7.20
2018-12-23T15:49:50.557Z,7.15
2018-12-23T15:52:31.310Z,7.12
2018-12-23T15:55:12.742Z,6.45
2018-12-23T15:57:53.861Z,8.40
2018-12-23T16:00:35.278Z,8.63
2018-12-23T16:03:17.193Z,8.78
2018-12-23T16:05:58.022Z,7.97
2018-12-23T16:08:38.821Z,7.25
2018-12-23T16:11:19.838Z,9.05
2018-12-23T16:14:01.102Z,7.25
2018-12-23T16:16:42.983Z,8.13
2018-12-23T16:19:24.295Z,10.03
2018-12-23T16:22:03.657Z,11.15
2018-12-23T16:24:52.113Z,10.65
2018-12-23T16:27:40.829Z,14.98
2018-12-23T16:30:29.058Z,11.65
2018-12-23T16:33:17.553Z,10.93
2018-12-23T16:36:05.743Z,9.68
2018-12-23T16:38:54.181Z,11.85
2018-12-23T16:41:42.966Z,18.95
2018-12-23T16:44:32.784Z,16.00
2018-12-23T16:47:21.945Z,11.33
2018-12-23T16:50:10.704Z,14.28
2018-12-23T16:52:58.909Z,15.08
2018-12-23T16:55:47.100Z,17.37
2018-12-23T16:58:35.784Z,14.00
2018-12-23T17:01:24.217Z,15.98
2018-12-23T17:04:12.654Z,16.70
2018-12-23T17:07:00.865Z,15.48
2018-12-23T17:09:49.330Z,19.30
2018-12-23T17:12:37.777Z,14.13
2018-12-23T17:15:26.461Z,16.48
2018-12-23T17:18:14.925Z,13.20
2018-12-23T17:20:55.837Z,16.02
2018-12-23T17:23:37.027Z,13.53
2018-12-23T17:26:17.618Z,10.80
2018-12-23T17:28:58.165Z,17.67
2018-12-23T17:31:39.409Z,15.23
2018-12-23T17:34:21.090Z,10.13
2018-12-23T17:37:02.579Z,11.60
2018-12-23T17:39:43.735Z,12.40
2018-12-23T17:42:24.493Z,13.75
2018-12-23T17:45:05.977Z,15.78
2018-12-23T17:47:46.883Z,18.35
2018-12-23T17:53:13.050Z,15.65
2018-12-23T17:58:39.714Z,16.93
2018-12-23T18:04:04.498Z,18.17
2018-12-23T18:09:35.055Z,13.60
2018-12-23T18:15:03.393Z,17.98
2018-12-23T18:20:29.049Z,15.48
2018-12-23T18:23:09.705Z,15.58
2018-12-23T18:28:40.806Z,15.32
2018-12-23T18:31:22.082Z,20.00
2018-12-23T18:34:04.130Z,12.90
2018-12-23T18:39:30.137Z,15.20
2018-12-23T18:44:55.914Z,13.95
2018-12-23T18:47:36.517Z,18.15
2018-12-23T18:50:18.330Z,16.80
2018-12-23T18:55:48.370Z,20.57
2018-12-23T19:01:17.927Z,20.52
2018-12-23T19:06:46.820Z,22.58
2018-12-23T19:12:17.310Z,17.17
2018-12-23T19:17:43.977Z,19.17
2018-12-23T19:20:25.693Z,17.67
2018-12-23T19:23:51.189Z,22.55
2018-12-23T19:26:51.401Z,21.00
2018-12-23T19:29:58.791Z,20.32
2018-12-23T19:33:06.202Z,18.35
2018-12-23T19:36:14.034Z,22.90
2018-12-23T19:42:32.090Z,24.43
2018-12-23T19:45:39.721Z,26.00
2018-12-23T19:48:47.153Z,21.17
2018-12-23T19:51:54.818Z,23.00
2018-12-23T19:55:02.458Z,22.62
2018-12-23T19:58:09.857Z,17.45
2018-12-23T20:04:37.787Z,17.15
2018-12-23T20:07:46.956Z,22.07
2018-12-23T20:10:58.940Z,14.98
2018-12-23T20:14:03.942Z,15.38
2018-12-23T20:17:11.353Z,16.60
2018-12-23T20:20:19.239Z,13.95
2018-12-23T20:23:26.642Z,16.07
2018-12-23T20:26:34.030Z,14.93
2018-12-23T20:29:41.662Z,12.82
2018-12-23T20:32:49.051Z,11.30
2018-12-23T20:35:54.184Z,10.45
2018-12-23T20:39:01.846Z,8.90
2018-12-23T20:42:09.229Z,12.43
2018-12-23T20:45:16.866Z,8.53
2018-12-23T20:48:24.266Z,6.30
2018-12-23T20:51:31.666Z,12.30
2018-12-23T20:54:39.066Z,5.90
2018-12-23T20:57:37.397Z,5.33
2018-12-23T21:00:44.794Z,5.58
2018-12-23T21:03:52.450Z,7.28
2018-12-23T21:06:59.847Z,6.17
2018-12-23T21:10:07.616Z,10.08
2018-12-23T21:13:15.017Z,2.90
2018-12-23T21:16:22.651Z,3.08
2018-12-23T21:19:30.271Z,2.92
2018-12-23T21:22:10.965Z,1.82
2018-12-23T21:24:52.107Z,2.98
2018-12-23T21:27:33.586Z,1.92
2018-12-23T21:30:14.268Z,4.10
2018-12-23T21:32:55.857Z,5.42
2018-12-23T21:35:36.990Z,1.65
2018-12-23T21:38:18.178Z,0.72
2018-12-23T21:40:58.770Z,0.35
2018-12-23T21:43:39.341Z,2.17
2018-12-23T21:46:20.202Z,0.75
2018-12-23T21:49:00.954Z,5.15
2018-12-23T21:51:41.982Z,0.35
2018-12-23T21:54:23.986Z,0.33
2018-12-23T21:57:05.369Z,0.10
2018-12-23T21:59:46.554Z,0.25
2018-12-23T22:02:28.045Z,0.15
2018-12-23T22:05:09.025Z,0.10
2018-12-23T22:07:50.370Z,0.10
2018-12-23T22:10:31.666Z,0.10
2018-12-23T22:13:12.779Z,0.05
2018-12-23T22:15:53.585Z,2.37
2018-12-23T22:21:28.402Z,0.15
2018-12-23T22:26:58.477Z,0.10
2018-12-23T22:32:27.094Z,3.12
2018-12-23T22:35:15.519Z,1.47
2018-12-23T22:38:03.960Z,0.10
2018-12-23T22:46:43.689Z,1.75
2018-12-23T22:49:32.117Z,0.13
2018-12-23T22:52:20.464Z,0.90
2018-12-23T22:55:08.685Z,0.10
2018-12-23T22:57:58.016Z,1.37
2018-12-23T23:03:56.561Z,1.25
2018-12-23T23:06:45.017Z,0.25
2018-12-23T23:09:33.438Z,0.85
2018-12-23T23:12:21.617Z,0.10
2018-12-23T23:15:10.145Z,1.47
2018-12-23T23:17:58.797Z,0.10
2018-12-23T23:23:31.010Z,1.92
2018-12-23T23:26:11.753Z,0.10
2018-12-23T23:28:53.492Z,0.62
2018-12-23T23:31:34.183Z,0.10
2018-12-23T23:34:15.062Z,0.17
2018-12-23T23:36:56.069Z,1.55
2018-12-23T23:39:36.849Z,0.10
2018-12-23T23:42:17.758Z,0.00
2018-12-23T23:44:58.362Z,0.10
2018-12-23T23:47:39.610Z,2.70
2018-12-23T23:50:20.709Z,0.20
2018-12-23T23:53:00.391Z,9.90
2018-12-23T23:55:49.025Z,1.37
2018-12-23T23:58:37.445Z,1.00
